Flight Track Log - Related Links

Times and Time Zones

All times are in EDT time to prevent confusion due to time zone crossing. See the ACA831 flight status page for this flight to view local times or setup timezone preferences in your user account.

Time Position Orientation Groundspeed Altitude Reporting Facility
EDT Latitude Longitude Course Direction KTS MPH feet Rate Location/Type
Thu 07:34:32 AM 46.2330 6.1040 225° Southwest 10 12  Level FlightAware ADS-B
Thu 07:34:57 AM 46.2320 6.1030 215° Southwest 10 12 288 Level FlightAware ADS-B
Thu 07:35:17 AM 46.2310 6.1020 215° Southwest 8 9 307 Level FlightAware ADS-B
Thu 07:35:37 AM 46.2310 6.1010 270° West 8 9 323 Level FlightAware ADS-B
Thu 07:36:07 AM 46.2300 6.1000 215° Southwest 8 9 342 Level FlightAware ADS-B
Thu 07:36:37 AM 46.2290 6.0990 215° Southwest 9 10 374 Level FlightAware ADS-B
Thu 07:37:07 AM 46.2280 6.0970 234° Southwest 12 14 412 Level FlightAware ADS-B
Thu 07:37:32 AM 46.2270 6.0960 215° Southwest 11 13 460 Level FlightAware ADS-B
Thu 07:38:02 AM 46.2260 6.0950 215° Southwest 10 12 508 Level FlightAware ADS-B
Thu 07:38:28 AM 46.2260 6.0940 270° West 6 7 583 Level FlightAware ADS-B
Thu 07:38:47 AM 46.2260 6.0930 270° West 3 3 667 Level FlightAware ADS-B
Thu 07:40:32 AM 46.2270 6.0920 325° Northwest 28 32 745 Level FlightAware ADS-B
Thu 07:41:02 AM 46.2370 6.1070 46° Northeast 160 184 2,143 Level FlightAware ADS-B
Thu 07:41:28 AM 46.2510 6.1270 45° Northeast 167 192 2,000 3,231 Climbing FlightAware ADS-B
Thu 07:42:07 AM 46.2750 6.1630 46° Northeast 189 217 3,500 1,939 Climbing FlightAware ADS-B
Thu 07:43:07 AM 46.3140 6.2220 46° Northeast 234 269 5,200 1,914 Climbing FlightAware ADS-B
Thu 07:44:03 AM 46.3630 6.2850 42° Northeast 270 311 7,200 2,143 Climbing FlightAware ADS-B
Thu 07:44:17 AM 46.3800 6.2900 11° North 271 312 7,700 2,217 Climbing FlightAware ADS-B
Thu 07:44:49 AM 46.4130 6.2720 339° North 280 322 8,900 2,451 Climbing FlightAware ADS-B
Thu 07:45:28 AM 46.4610 6.2340 331° Northwest 291 335 10,600 2,612 Climbing FlightAware ADS-B
Thu 07:46:14 AM 46.5180 6.1870 330° Northwest 296 341 12,600 2,074 Climbing FlightAware ADS-B
Thu 07:46:49 AM 46.5620 6.1490 329° Northwest 327 376 13,400 1,735 Climbing FlightAware ADS-B
Thu 07:47:37 AM 46.6040 6.0670 307° West 354 407 15,000 2,348 Climbing FlightAware ADS-B
Thu 07:48:21 AM 46.6450 5.9740 303° West 360 414 17,000 2,458 Climbing FlightAware ADS-B
Thu 07:49:00 AM 46.6830 5.8840 302° West 373 429 18,400 1,829 Climbing FlightAware ADS-B
Thu 07:49:43 AM 46.7220 5.7900 301° West 394 453 19,500 1,778 Climbing FlightAware ADS-B
Thu 07:50:21 AM 46.7590 5.7030 302° West 399 459 20,800 1,857 Climbing FlightAware ADS-B
Thu 07:51:07 AM 46.8040 5.5970 302° West 409 471 22,100 1,705 Climbing FlightAware ADS-B
Thu 07:51:49 AM 46.8460 5.4960 301° West 417 480 23,300 1,786 Climbing FlightAware ADS-B
Thu 07:52:31 AM 46.8900 5.3940 302° West 419 482 24,600 1,605 Climbing FlightAware ADS-B
Thu 07:53:15 AM 46.9450 5.3020 311° West 424 488 25,600 1,350 Climbing FlightAware ADS-B
Thu 07:53:51 AM 46.9960 5.2240 314° West 430 495 26,400 1,390 Climbing FlightAware ADS-B
Thu 07:54:37 AM 47.0590 5.1280 314° West 436 502 27,500 1,605 Climbing FlightAware ADS-B
Thu 07:55:17 AM 47.1160 5.0420 314° West 432 497 28,700 1,615 Climbing FlightAware ADS-B
Thu 07:55:55 AM 47.1670 4.9640 314° West 434 499 29,600 1,518 Climbing FlightAware ADS-B
Thu 07:56:40 AM 47.2320 4.8650 314° West 432 497 30,800 1,465 Climbing FlightAware ADS-B
Thu 07:57:21 AM 47.2860 4.7820 314° West 428 493 31,700 900 Climbing FlightAware ADS-B
Thu 07:58:00 AM 47.3240 4.7250 315° West 431 496 32,000 200 Climbing FlightAware ADS-B
Thu 07:58:51 AM 47.4080 4.5940 313° West 428 493 32,000  Level FlightAware ADS-B
Thu 07:59:26 AM 47.4600 4.5130 314° West 430 495 32,000  Level FlightAware ADS-B
Thu 07:59:53 AM 47.4970 4.4570 314° West 428 493 32,000  Level FlightAware ADS-B
Thu 08:02:00 AM 47.6210 4.1198 299° West  Level Estimated
Thu 08:02:53 AM 47.7210 4.1050 298° West 423 487 32,000  Level FlightAware ADS-B
Thu 08:03:00 AM 47.6792 3.9599 298° West  Level Estimated
Thu 08:03:38 AM 47.7990 3.9820 313° West 423 487 32,000  Level FlightAware ADS-B
Thu 08:04:21 AM 47.8570 3.8890 313° West 423 487 32,000  Level FlightAware ADS-B
Thu 08:05:02 AM 47.9070 3.8100 313° West 423 487 32,000  Level FlightAware ADS-B
Thu 08:05:37 AM 47.9540 3.7350 313° West 421 484 32,000  Level FlightAware ADS-B
Thu 08:06:22 AM 48.0170 3.6350 313° West 421 484 32,000  Level FlightAware ADS-B
Thu 08:07:09 AM 48.0800 3.5330 313° West 420 483 32,000  Level FlightAware ADS-B
Thu 08:07:47 AM 48.1300 3.4520 313° West 421 484 32,000  Level FlightAware ADS-B
Thu 08:08:33 AM 48.1910 3.3530 313° West 421 484 32,000  Level FlightAware ADS-B
Thu 08:09:15 AM 48.2470 3.2620 313° West 422 486 32,000  Level FlightAware ADS-B
Thu 08:09:51 AM 48.2910 3.1910 313° West 422 486 32,000  Level FlightAware ADS-B
Thu 08:10:51 AM 48.3730 3.0570 313° West 426 490 32,000  Level FlightAware ADS-B
Thu 08:11:34 AM 48.4220 2.9530 305° West 443 510 32,000  Level FlightAware ADS-B
Thu 08:12:18 AM 48.4460 2.8210 285° West 454 522 32,000  Level FlightAware ADS-B
Thu 08:12:51 AM 48.4620 2.7200 283° West 455 524 32,000  Level FlightAware ADS-B
Thu 08:13:41 AM 48.4830 2.5680 282° West 455 524 32,000  Level FlightAware ADS-B
Thu 08:14:21 AM 48.4970 2.4380 279° West 451 519 32,000  Level FlightAware ADS-B
Thu 08:16:00 AM 48.5884 2.1659 297° West  Level Estimated
Thu 08:16:01 AM 48.5264 2.1261 297° West 1 1 32,000  Level FlightAware UK
Thu 08:16:37 AM 48.5372 2.0147 278° West 480 552 32,000  Level FlightAware UK
Thu 08:17:13 AM 48.5470 1.9038 278° West 476 548 32,000  Level FlightAware UK
Thu 08:17:49 AM 48.5562 1.7931 277° West 474 545 32,000  Level FlightAware UK
Thu 08:18:31 AM 48.5669 1.6635 277° West 472 543 32,000  Level FlightAware UK
Thu 08:18:41 AM 48.5700 1.6330 277° West 445 512 32,000  Level FlightAware ADS-B
Thu 08:19:13 AM 48.5784 1.5348 277° West 474 545 32,000  Level FlightAware UK
Thu 08:19:22 AM 48.5810 1.5130 277° West 445 512 32,000  Level FlightAware ADS-B
Thu 08:19:55 AM 48.5897 1.4066 277° West 474 545 32,000  Level FlightAware UK
Thu 08:20:08 AM 48.5930 1.3680 277° West 445 512 32,000  Level FlightAware ADS-B
Thu 08:20:55 AM 48.6055 1.2220 277° West 472 543 32,000  Level FlightAware UK
Thu 08:21:01 AM 48.6070 1.2040 277° West 445 512 32,000  Level FlightAware ADS-B
Thu 08:21:56 AM 48.6210 1.0370 277° West 447 514 32,000  Level FlightAware ADS-B
Thu 08:22:00 AM 48.6222 1.0192 277° West 474 545 32,000  Level FlightAware UK
Thu 08:22:36 AM 48.6310 0.9082 277° West 474 545 32,000  Level FlightAware UK
Thu 08:22:43 AM 48.6330 0.8890 277° West 448 516 32,000  Level FlightAware ADS-B
Thu 08:23:28 AM 48.6440 0.7540 277° West 450 518 32,000  Level FlightAware ADS-B
Thu 08:24:07 AM 48.6540 0.6310 277° West 451 519 32,000  Level FlightAware ADS-B
Thu 08:24:44 AM 48.6630 0.5130 277° West 450 518 32,000  Level FlightAware ADS-B
Thu 08:25:30 AM 48.6736 0.3661 277° West 478 550 32,000  Level FlightAware UK
Thu 08:25:32 AM 48.6740 0.3640 277° West 451 519 32,000  Level FlightAware ADS-B
Thu 08:26:30 AM 48.6880 0.1800 277° West 450 518 32,000  Level FlightAware ADS-B
Thu 08:27:10 AM 48.6970 0.0540 276° West 451 519 32,000  Level FlightAware ADS-B
Thu 08:27:52 AM 48.7070 -0.0760 277° West 451 519 32,000  Level FlightAware ADS-B
Thu 08:28:24 AM 48.7136 -0.1771 277° West 476 548 32,000  Level FlightAware UK
Thu 08:28:30 AM 48.7150 -0.1950 277° West 451 519 32,000  Level FlightAware ADS-B
Thu 08:29:00 AM 48.7217 -0.2899 277° West 478 550 32,000  Level FlightAware UK
Thu 08:29:16 AM 48.7250 -0.3360 277° West 451 519 32,000  Level FlightAware ADS-B
Thu 08:29:47 AM 48.7320 -0.4399 277° West 480 552 32,000  Level FlightAware UK
Thu 08:29:53 AM 48.7330 -0.4510 277° West 450 518 32,000  Level FlightAware ADS-B
Thu 08:30:59 AM 48.7472 -0.6643 277° West 482 555 32,000  Level FlightAware UK
Thu 08:31:35 AM 48.7547 -0.7764 276° West 482 555 32,000 -56 Level FlightAware UK
Thu 08:32:47 AM 48.7688 -0.9992 276° West 480 552 31,900  Descending FlightAware UK
Thu 08:32:56 AM 48.7710 -1.0260 276° West 445 512 32,000 115 Climbing FlightAware ADS-B
Thu 08:33:39 AM 48.7790 -1.1580 275° West 443 510 32,000  Level FlightAware ADS-B
Thu 08:34:24 AM 48.7870 -1.2920 275° West 443 510 32,000  Level FlightAware ADS-B
Thu 08:35:11 AM 48.7961 -1.4415 275° West 474 545 32,000  Level FlightAware UK
Thu 08:35:41 AM 48.8016 -1.5335 275° West 474 545 32,000  Level FlightAware UK
Thu 08:35:56 AM 48.8040 -1.5720 275° West 32,000  Level FlightAware ADS-B
Thu 08:36:28 AM 48.8103 -1.6805 275° West 476 548 32,000  Level FlightAware UK
Thu 08:36:41 AM 48.8130 -1.7170 275° West 442 509 32,000  Level FlightAware ADS-B
Thu 08:37:29 AM 48.8210 -1.8680 275° West 444 511 32,000  Level FlightAware ADS-B
Thu 08:38:11 AM 48.8280 -1.9950 275° West 445 512 32,000  Level FlightAware ADS-B
Thu 08:38:49 AM 48.8350 -2.1150 275° West 446 513 32,000  Level FlightAware ADS-B
Thu 08:38:52 AM 48.8348 -2.1263 275° West 476 548 32,000  Level FlightAware UK
Thu 08:39:33 AM 48.8420 -2.2540 275° West 447 514 32,000  Level FlightAware ADS-B
Thu 08:39:34 AM 48.8417 -2.2570 275° West 478 550 32,000  Level FlightAware UK
Thu 08:40:16 AM 48.8485 -2.3878 275° West 480 552 32,000  Level FlightAware UK
Thu 08:40:17 AM 48.8490 -2.3880 275° West 447 514 32,000  Level FlightAware ADS-B
Thu 08:40:57 AM 48.8550 -2.5120 274° West 447 514 32,000  Level FlightAware ADS-B
Thu 08:41:39 AM 48.8620 -2.6440 275° West 446 513 32,000  Level FlightAware ADS-B
Thu 08:42:19 AM 48.8680 -2.7690 274° West 446 513 32,000  Level FlightAware ADS-B
Thu 08:43:01 AM 48.8740 -2.9010 274° West 446 513 32,000  Level FlightAware ADS-B
Thu 08:43:34 AM 48.8789 -3.0044 274° West 478 550 32,000  Level FlightAware UK
Thu 08:43:45 AM 48.8810 -3.0370 274° West 446 513 32,000  Level FlightAware ADS-B
Thu 08:44:29 AM 48.8870 -3.1760 274° West 446 513 32,000  Level FlightAware ADS-B
Thu 08:45:09 AM 48.8920 -3.3000 274° West 447 514 32,000  Level FlightAware ADS-B
Thu 08:45:51 AM 48.8980 -3.4330 274° West 447 514 32,000  Level FlightAware ADS-B
Thu 08:46:33 AM 48.9030 -3.5610 273° West 448 516 32,000  Level FlightAware ADS-B
Thu 08:47:15 AM 48.9087 -3.6973 273° West 478 550 32,000  Level FlightAware UK
Thu 08:47:15 AM 48.9090 -3.6940 273° West 449 517 32,000  Level FlightAware ADS-B
Thu 08:47:45 AM 48.9124 -3.7915 273° West 478 550 32,000  Level FlightAware UK
Thu 08:47:59 AM 48.9140 -3.8340 273° West 449 517 32,000  Level FlightAware ADS-B
Thu 08:48:41 AM 48.9190 -3.9650 273° West 450 518 32,000  Level FlightAware ADS-B
Thu 08:49:19 AM 48.9240 -4.0870 274° West 451 519 32,000  Level FlightAware ADS-B
Thu 08:50:03 AM 48.9290 -4.2240 273° West 451 519 32,000  Level FlightAware ADS-B
Thu 08:50:47 AM 48.9330 -4.3630 273° West 452 520 32,000  Level FlightAware ADS-B
Thu 08:51:21 AM 48.9370 -4.4700 273° West 452 520 32,000  Level FlightAware ADS-B
Thu 08:52:09 AM 48.9420 -4.6250 273° West 480 552 32,000  Level FlightAware UK
Thu 08:52:11 AM 48.9420 -4.6270 273° West 452 520 32,000  Level FlightAware ADS-B
Thu 08:52:45 AM 48.9456 -4.7394 273° West 480 552 32,000  Level FlightAware UK
Thu 08:52:51 AM 48.9460 -4.7550 273° West 452 520 32,000  Level FlightAware ADS-B
Thu 08:53:33 AM 48.9498 -4.8907 273° West 484 557 32,000  Level FlightAware UK
Thu 08:53:35 AM 48.9500 -4.8970 273° West 452 520 32,000  Level FlightAware ADS-B
Thu 08:54:15 AM 48.9540 -5.0230 273° West 452 520 32,000  Level FlightAware ADS-B
Thu 08:54:53 AM 48.9570 -5.1420 273° West 452 520 32,000  Level FlightAware ADS-B
Thu 08:54:57 AM 48.9573 -5.1571 273° West 482 555 32,000  Level FlightAware UK
Thu 08:55:27 AM 48.9598 -5.2521 273° West 480 552 32,000  Level FlightAware UK
Thu 08:55:41 AM 48.9610 -5.2930 273° West 451 519 32,000  Level FlightAware ADS-B
Thu 08:56:19 AM 48.9640 -5.4090 272° West 451 519 32,000  Level FlightAware ADS-B
Thu 08:57:03 AM 48.9676 -5.5559 272° West 480 552 32,000  Level FlightAware UK
Thu 08:57:05 AM 48.9680 -5.5610 272° West 451 519 32,000 947 Level FlightAware ADS-B
Thu 08:57:41 AM 48.9710 -5.6730 272° West 450 518 32,600 1,000 Climbing FlightAware ADS-B
Thu 08:58:23 AM 48.9730 -5.8010 271° West 450 518 33,300 886 Climbing FlightAware ADS-B
Thu 08:59:09 AM 48.9765 -5.9532 271° West 482 555 33,900 913 Climbing FlightAware UK
Thu 08:59:09 AM 48.9770 -5.9470 271° West 449 517 34,000 200 Climbing FlightAware ADS-B
Thu 08:59:39 AM 48.9783 -6.0479 271° West 484 557 34,000  Level FlightAware UK
Thu 08:59:51 AM 48.9790 -6.0860 271° West 455 524 34,000  Level FlightAware ADS-B
Thu 09:00:19 AM 48.9810 -6.1740 272° West 454 522 34,000  Level FlightAware ADS-B
Thu 09:01:02 AM 48.9830 -6.3050 271° West 451 519 34,000  Level FlightAware ADS-B
Thu 09:01:39 AM 48.9850 -6.4295 271° West 480 552 34,000  Level FlightAware UK
Thu 09:01:39 AM 48.9850 -6.4290 271° West 450 518 34,000  Level FlightAware ADS-B
Thu 09:02:09 AM 48.9866 -6.5241 271° West 480 552 34,000  Level FlightAware UK
Thu 09:02:21 AM 48.9870 -6.5620 271° West 448 516 34,000  Level FlightAware ADS-B
Thu 09:03:07 AM 48.9900 -6.7060 272° West 445 512 34,000  Level FlightAware ADS-B
Thu 09:03:39 AM 48.9974 -6.8036 272° West 476 548 34,000  Level FlightAware UK
Thu 09:03:49 AM 49.0020 -6.8340 272° West 436 502 34,000  Level FlightAware ADS-B
Thu 09:04:33 AM 49.0220 -6.9640 283° West 434 499 34,000  Level FlightAware ADS-B
Thu 09:05:14 AM 49.0411 -7.0888 283° West 472 543 34,000  Level FlightAware UK
Thu 09:05:21 AM 49.0440 -7.1090 283° West 434 499 34,000  Level FlightAware ADS-B
Thu 09:06:07 AM 49.0650 -7.2430 283° West 434 499 34,000  Level FlightAware ADS-B
Thu 09:06:44 AM 49.0829 -7.3565 283° West 476 548 34,000  Level FlightAware UK
Thu 09:06:53 AM 49.0870 -7.3810 283° West 435 501 34,000  Level FlightAware ADS-B
Thu 09:07:35 AM 49.1060 -7.5050 283° West 435 501 34,000  Level FlightAware ADS-B
Thu 09:08:14 AM 49.1247 -7.6248 283° West 476 548 34,000  Level FlightAware UK
Thu 09:08:15 AM 49.1250 -7.6250 283° West 435 501 34,000  Level FlightAware ADS-B
Thu 09:08:55 AM 49.1430 -7.7450 283° West 435 501 34,000  Level FlightAware ADS-B
Thu 09:09:41 AM 49.1640 -7.8830 283° West 434 499 34,000  Level FlightAware ADS-B
Thu 09:10:14 AM 49.1789 -7.9828 283° West 472 543 34,000  Level FlightAware UK
Thu 09:10:21 AM 49.1820 -8.0020 283° West 435 501 34,000  Level FlightAware ADS-B
Thu 09:10:57 AM 49.1970 -8.1050 283° West 435 501 34,000  Level FlightAware ADS-B
Thu 09:11:27 AM 49.2110 -8.2000 283° West 436 502 34,000  Level FlightAware ADS-B
Thu 09:12:14 AM 49.2320 -8.3390 283° West 437 503 34,000  Level FlightAware ADS-B
Thu 09:12:50 AM 49.2478 -8.4504 283° West 476 548 34,000  Level FlightAware UK
Thu 09:12:57 AM 49.2510 -8.4700 283° West 437 503 34,000  Level FlightAware ADS-B
Thu 09:13:37 AM 49.2680 -8.5890 282° West 438 504 34,000  Level FlightAware ADS-B
Thu 09:14:18 AM 49.2830 -8.6950 282° West 438 504 34,000  Level FlightAware ADS-B
Thu 09:14:20 AM 49.2868 -8.7223 282° West 476 548 34,000  Level FlightAware UK
Thu 09:14:50 AM 49.2997 -8.8130 282° West 476 548 34,000  Level FlightAware UK
Thu 09:15:43 AM 49.3130 -8.9140 282° West 438 504 34,000  Level FlightAware ADS-B
Thu 09:16:19 AM 49.3260 -9.0070 282° West 438 504 34,000  Level FlightAware ADS-B
Thu 09:17:08 AM 49.3440 -9.1340 282° West 438 504 34,000  Level FlightAware ADS-B
Thu 09:17:44 AM 49.3560 -9.2270 281° West 438 504 34,000  Level FlightAware ADS-B
Thu 09:18:30 AM 49.3730 -9.3460 282° West 438 504 34,000  Level FlightAware ADS-B
Thu 09:19:16 AM 49.3890 -9.4650 282° West 438 504 34,000  Level FlightAware ADS-B
Thu 09:19:50 AM 49.4020 -9.5530 283° West 438 504 34,000  Level FlightAware ADS-B
Thu 09:20:36 AM 49.4180 -9.6720 282° West 438 504 34,000  Level FlightAware ADS-B
Thu 09:21:22 AM 49.4340 -9.7910 282° West 438 504 34,000  Level FlightAware ADS-B
Thu 09:21:58 AM 49.4470 -9.8850 282° West 438 504 34,000  Level FlightAware ADS-B
Thu 09:22:45 AM 49.4640 -10.0060 282° West 438 504 34,000  Level FlightAware ADS-B
Thu 09:23:21 AM 49.4770 -10.1000 282° West 438 504 34,000 18 Level FlightAware ADS-B
Thu 09:26:00 AM 49.5865 -10.5729 290° West  Level Estimated
Thu 09:27:00 AM 49.6274 -10.7519 289° West  Level Estimated
Thu 09:28:00 AM 49.6679 -10.9312 289° West  Level Estimated
Thu 09:29:00 AM 49.7082 -11.1108 289° West  Level Estimated
Thu 09:30:00 AM 49.7482 -11.2906 289° West  Level Estimated
Thu 09:31:00 AM 49.7879 -11.4708 289° West  Level Estimated
Thu 09:32:00 AM 49.8274 -11.6513 289° West  Level Estimated
Thu 09:33:00 AM 49.8665 -11.8321 289° West  Level Estimated
Thu 09:34:00 AM 49.9054 -12.0132 289° West  Level Estimated
Thu 09:35:00 AM 49.9440 -12.1945 288° West  Level Estimated
Thu 09:36:00 AM 49.9823 -12.3762 288° West  Level Estimated
Thu 09:37:00 AM 50.0203 -12.5581 288° West  Level Estimated
Thu 09:38:00 AM 50.0581 -12.7403 288° West  Level Estimated
Thu 09:39:00 AM 50.0955 -12.9228 288° West  Level Estimated
Thu 09:40:00 AM 50.1327 -13.1056 288° West  Level Estimated
Thu 09:41:00 AM 50.1696 -13.2887 288° West  Level Estimated
Thu 09:42:00 AM 50.2062 -13.4720 287° West  Level Estimated
Thu 09:43:00 AM 50.2425 -13.6557 287° West  Level Estimated
Thu 09:44:00 AM 50.2785 -13.8396 287° West  Level Estimated
Thu 09:45:00 AM 50.3143 -14.0238 287° West  Level Estimated
Thu 09:46:00 AM 50.3497 -14.2083 287° West  Level Estimated
Thu 09:47:00 AM 50.3848 -14.3930 287° West  Level Estimated
Thu 09:48:00 AM 50.4197 -14.5780 287° West  Level Estimated
Thu 09:49:00 AM 50.4542 -14.7633 286° West  Level Estimated
Thu 09:50:00 AM 50.4885 -14.9489 286° West  Level Estimated
Thu 09:51:00 AM 50.5225 -15.1347 286° West  Level Estimated
Thu 09:52:00 AM 50.5559 -15.3192 286° West  Level Estimated
Thu 09:53:00 AM 50.5889 -15.5039 286° West  Level Estimated
Thu 09:54:00 AM 50.6217 -15.6889 286° West  Level Estimated
Thu 09:55:00 AM 50.6542 -15.8741 286° West  Level Estimated
Thu 09:56:00 AM 50.6864 -16.0596 285° West  Level Estimated
Thu 09:57:00 AM 50.7183 -16.2453 285° West  Level Estimated
Thu 09:58:00 AM 50.7499 -16.4313 285° West  Level Estimated
Thu 09:59:00 AM 50.7813 -16.6175 285° West  Level Estimated
Thu 10:00:00 AM 50.8123 -16.8040 285° West  Level Estimated
Thu 10:01:00 AM 50.8430 -16.9908 285° West  Level Estimated
Thu 10:02:00 AM 50.8734 -17.1778 285° West  Level Estimated
Thu 10:03:00 AM 50.9035 -17.3650 284° West  Level Estimated
Thu 10:04:00 AM 50.9334 -17.5525 284° West  Level Estimated
Thu 10:05:00 AM 50.9629 -17.7402 284° West  Level Estimated
Thu 10:06:00 AM 50.9921 -17.9281 284° West  Level Estimated
Thu 10:07:00 AM 51.0210 -18.1163 284° West  Level Estimated
Thu 10:08:00 AM 51.0497 -18.3047 284° West  Level Estimated
Thu 10:09:00 AM 51.0780 -18.4933 284° West  Level Estimated
Thu 10:10:00 AM 51.1060 -18.6822 283° West  Level Estimated
Thu 10:11:00 AM 51.1337 -18.8713 283° West  Level Estimated
Thu 10:12:00 AM 51.1611 -19.0606 283° West  Level Estimated
Thu 10:13:00 AM 51.1882 -19.2502 283° West  Level Estimated
Thu 10:14:00 AM 51.2150 -19.4400 283° West  Level Estimated
Thu 10:15:00 AM 51.2415 -19.6299 283° West  Level Estimated
Thu 10:16:00 AM 51.2677 -19.8202 282° West  Level Estimated
Thu 10:17:00 AM 51.2935 -20.0106 282° West  Level Estimated
Thu 10:18:00 AM 51.3191 -20.2012 282° West  Level Estimated
Thu 10:18:00 AM 49.0000 -20.0000 265° West 446 513 35,000  Level ETMS Enhanced Traffic Management System
Thu 10:19:00 AM 51.3443 -20.3921 282° West  Level Estimated
Thu 10:20:00 AM 51.3693 -20.5831 282° West  Level Estimated
Thu 10:21:00 AM 51.3938 -20.7740 282° West  Level Estimated
Thu 10:22:00 AM 51.4181 -20.9650 282° West  Level Estimated
Thu 10:23:00 AM 51.4421 -21.1563 281° West  Level Estimated
Thu 10:24:00 AM 48.9070 -21.5041 264° West 446 513 35,000  Level FlightAware Transoceanic
Thu 10:25:00 AM 48.8940 -21.6917 264° West 446 513 35,000  Level FlightAware Transoceanic
Thu 10:26:00 AM 48.8807 -21.8792 264° West 446 513 35,000  Level FlightAware Transoceanic
Thu 10:27:00 AM 48.8671 -22.0665 264° West 446 513 35,000  Level FlightAware Transoceanic
Thu 10:28:00 AM 48.8532 -22.2538 263° West 446 513 35,000  Level FlightAware Transoceanic
Thu 10:29:00 AM 48.8390 -22.4410 263° West 446 513 35,000  Level FlightAware Transoceanic
Thu 10:30:00 AM 48.8245 -22.6281 263° West 446 513 35,000  Level FlightAware Transoceanic
Thu 10:31:00 AM 48.8097 -22.8151 263° West 446 513 35,000  Level FlightAware Transoceanic
Thu 10:32:00 AM 48.7945 -23.0019 263° West 446 513 35,000  Level FlightAware Transoceanic
Thu 10:33:00 AM 48.7791 -23.1887 263° West 446 513 35,000  Level FlightAware Transoceanic
Thu 10:34:00 AM 48.7634 -23.3753 263° West 446 513 35,000  Level FlightAware Transoceanic
Thu 10:35:00 AM 48.7474 -23.5618 263° West 446 513 35,000  Level FlightAware Transoceanic
Thu 10:36:00 AM 48.7310 -23.7482 262° West 446 513 35,000  Level FlightAware Transoceanic
Thu 10:37:00 AM 48.7144 -23.9345 262° West 446 513 35,000  Level FlightAware Transoceanic
Thu 10:38:00 AM 48.6975 -24.1206 262° West 446 513 35,000  Level FlightAware Transoceanic
Thu 10:39:00 AM 48.6803 -24.3067 262° West 446 513 35,000  Level FlightAware Transoceanic
Thu 10:40:00 AM 48.6627 -24.4926 262° West 446 513 35,000  Level FlightAware Transoceanic
Thu 10:41:00 AM 48.6449 -24.6783 262° West 446 513 35,000  Level FlightAware Transoceanic
Thu 10:42:00 AM 48.6268 -24.8640 262° West 446 513 35,000  Level FlightAware Transoceanic
Thu 10:43:00 AM 48.6084 -25.0494 261° West 446 513 35,000  Level FlightAware Transoceanic
Thu 10:44:00 AM 48.5896 -25.2348 261° West 446 513 35,000  Level FlightAware Transoceanic
Thu 10:45:00 AM 48.5706 -25.4200 261° West 446 513 35,000  Level FlightAware Transoceanic
Thu 10:46:00 AM 48.5513 -25.6051 261° West 446 513 35,000  Level FlightAware Transoceanic
Thu 10:47:00 AM 48.5317 -25.7900 261° West 446 513 35,000  Level FlightAware Transoceanic
Thu 10:48:00 AM 48.5118 -25.9748 261° West 446 513 35,000  Level FlightAware Transoceanic
Thu 10:49:00 AM 48.4916 -26.1595 261° West 446 513 35,000  Level FlightAware Transoceanic
Thu 10:50:00 AM 48.4711 -26.3440 260° West 446 513 35,000  Level FlightAware Transoceanic
Thu 10:51:00 AM 48.4503 -26.5283 260° West 446 513 35,000  Level FlightAware Transoceanic
Thu 10:52:00 AM 48.4292 -26.7125 260° West 446 513 35,000  Level FlightAware Transoceanic
Thu 10:53:00 AM 48.4079 -26.8966 260° West 446 513 35,000  Level FlightAware Transoceanic
Thu 10:54:00 AM 48.3862 -27.0805 260° West 446 513 35,000  Level FlightAware Transoceanic
Thu 10:55:00 AM 48.3642 -27.2642 260° West 446 513 35,000  Level FlightAware Transoceanic
Thu 10:56:00 AM 48.3420 -27.4478 260° West 446 513 35,000  Level FlightAware Transoceanic
Thu 10:57:00 AM 48.3194 -27.6312 259° West 446 513 35,000  Level FlightAware Transoceanic
Thu 10:58:00 AM 48.2966 -27.8144 259° West 446 513 35,000  Level FlightAware Transoceanic
Thu 10:59:00 AM 48.2735 -27.9975 259° West 446 513 35,000  Level FlightAware Transoceanic
Thu 11:00:00 AM 48.2500 -28.1804 259° West 446 513 35,000  Level FlightAware Transoceanic
Thu 11:01:00 AM 48.2263 -28.3632 259° West 446 513 35,000  Level FlightAware Transoceanic
Thu 11:02:00 AM 48.2023 -28.5457 259° West 446 513 35,000  Level FlightAware Transoceanic
Thu 11:03:00 AM 48.1781 -28.7281 259° West 446 513 35,000  Level FlightAware Transoceanic
Thu 11:04:00 AM 48.1535 -28.9104 259° West 446 513 35,000  Level FlightAware Transoceanic
Thu 11:05:00 AM 48.1286 -29.0924 258° West 446 513 35,000  Level FlightAware Transoceanic
Thu 11:06:00 AM 48.1035 -29.2743 258° West 446 513 35,000  Level FlightAware Transoceanic
Thu 11:07:00 AM 48.0780 -29.4560 258° West 446 513 35,000  Level FlightAware Transoceanic
Thu 11:08:00 AM 48.0523 -29.6375 258° West 446 513 35,000  Level FlightAware Transoceanic
Thu 11:09:00 AM 48.0263 -29.8188 258° West 446 513 35,000  Level FlightAware Transoceanic
Thu 11:10:00 AM 48.0509 -29.9970 282° West  Level Estimated
Thu 11:11:00 AM 48.0753 -30.1753 282° West  Level Estimated
Thu 11:12:00 AM 48.0994 -30.3537 281° West  Level Estimated
Thu 11:13:00 AM 48.1232 -30.5324 281° West  Level Estimated
Thu 11:13:11 AM 48.0000 -30.0000 265° West 463 533 35,000  Level ETMS Enhanced Traffic Management System
Thu 11:14:00 AM 48.1467 -30.7112 281° West  Level Estimated
Thu 11:15:00 AM 48.1698 -30.8894 281° West  Level Estimated
Thu 11:16:00 AM 48.1927 -31.0677 281° West  Level Estimated
Thu 11:17:00 AM 48.2153 -31.2462 281° West  Level Estimated
Thu 11:18:00 AM 48.2376 -31.4248 281° West  Level Estimated
Thu 11:19:00 AM 47.8920 -31.7226 264° West 463 533 35,000  Level FlightAware Transoceanic
Thu 11:20:00 AM 47.8784 -31.9135 264° West 463 533 35,000  Level FlightAware Transoceanic
Thu 11:21:00 AM 47.8645 -32.1044 264° West 463 533 35,000  Level FlightAware Transoceanic
Thu 11:22:00 AM 47.8503 -32.2951 264° West 463 533 35,000  Level FlightAware Transoceanic
Thu 11:23:00 AM 47.8357 -32.4857 263° West 463 533 35,000  Level FlightAware Transoceanic
Thu 11:24:00 AM 47.8209 -32.6763 263° West 463 533 35,000  Level FlightAware Transoceanic
Thu 11:25:00 AM 47.8057 -32.8667 263° West 463 533 35,000  Level FlightAware Transoceanic
Thu 11:26:00 AM 47.7902 -33.0570 263° West 463 533 35,000  Level FlightAware Transoceanic
Thu 11:27:00 AM 47.7744 -33.2471 263° West 463 533 35,000  Level FlightAware Transoceanic
Thu 11:28:00 AM 47.7583 -33.4372 263° West 463 533 35,000  Level FlightAware Transoceanic
Thu 11:29:00 AM 47.7419 -33.6272 263° West 463 533 35,000  Level FlightAware Transoceanic
Thu 11:30:00 AM 47.7252 -33.8170 262° West 463 533 35,000  Level FlightAware Transoceanic
Thu 11:31:00 AM 47.7081 -34.0067 262° West 463 533 35,000  Level FlightAware Transoceanic
Thu 11:32:00 AM 47.6908 -34.1963 262° West 463 533 35,000  Level FlightAware Transoceanic
Thu 11:33:00 AM 47.6731 -34.3857 262° West 463 533 35,000  Level FlightAware Transoceanic
Thu 11:34:00 AM 47.6551 -34.5750 262° West 463 533 35,000  Level FlightAware Transoceanic
Thu 11:35:00 AM 47.6368 -34.7642 262° West 463 533 35,000  Level FlightAware Transoceanic
Thu 11:36:00 AM 47.6182 -34.9533 262° West 463 533 35,000  Level FlightAware Transoceanic
Thu 11:37:00 AM 47.5993 -35.1422 261° West 463 533 35,000  Level FlightAware Transoceanic
Thu 11:38:00 AM 47.5801 -35.3310 261° West 463 533 35,000  Level FlightAware Transoceanic
Thu 11:39:00 AM 47.5605 -35.5196 261° West 463 533 35,000  Level FlightAware Transoceanic
Thu 11:40:00 AM 47.5407 -35.7081 261° West 463 533 35,000  Level FlightAware Transoceanic
Thu 11:41:00 AM 47.5205 -35.8965 261° West 463 533 35,000  Level FlightAware Transoceanic
Thu 11:42:00 AM 47.5000 -36.0847 261° West 463 533 35,000  Level FlightAware Transoceanic
Thu 11:43:00 AM 47.4793 -36.2727 261° West 463 533 35,000  Level FlightAware Transoceanic
Thu 11:44:00 AM 47.4582 -36.4606 261° West 463 533 35,000  Level FlightAware Transoceanic
Thu 11:45:00 AM 47.4368 -36.6484 260° West 463 533 35,000  Level FlightAware Transoceanic
Thu 11:46:00 AM 47.4151 -36.8360 260° West 463 533 35,000  Level FlightAware Transoceanic
Thu 11:47:00 AM 47.3931 -37.0235 260° West 463 533 35,000  Level FlightAware Transoceanic
Thu 11:48:00 AM 47.3708 -37.2108 260° West 463 533 35,000  Level FlightAware Transoceanic
Thu 11:49:00 AM 47.3482 -37.3979 260° West 463 533 35,000  Level FlightAware Transoceanic
Thu 11:50:00 AM 47.3253 -37.5849 260° West 463 533 35,000  Level FlightAware Transoceanic
Thu 11:51:00 AM 47.3021 -37.7717 260° West 463 533 35,000  Level FlightAware Transoceanic
Thu 11:52:00 AM 47.2786 -37.9583 259° West 463 533 35,000  Level FlightAware Transoceanic
Thu 11:53:00 AM 47.2547 -38.1448 259° West 463 533 35,000  Level FlightAware Transoceanic
Thu 11:54:00 AM 47.2306 -38.3311 259° West 463 533 35,000  Level FlightAware Transoceanic
Thu 11:55:00 AM 47.2062 -38.5173 259° West 463 533 35,000  Level FlightAware Transoceanic
Thu 11:56:00 AM 47.1815 -38.7032 259° West 463 533 35,000  Level FlightAware Transoceanic
Thu 11:57:00 AM 47.1564 -38.8890 259° West 463 533 35,000  Level FlightAware Transoceanic
Thu 11:58:00 AM 47.1311 -39.0746 259° West 463 533 35,000  Level FlightAware Transoceanic
Thu 11:59:00 AM 47.1055 -39.2601 258° West 463 533 35,000  Level FlightAware Transoceanic
Thu 12:00:00 PM 47.0796 -39.4453 258° West 463 533 35,000  Level FlightAware Transoceanic
Thu 12:01:00 PM 47.0533 -39.6304 258° West 463 533 35,000  Level FlightAware Transoceanic
Thu 12:02:00 PM 47.0268 -39.8153 258° West 463 533 35,000  Level FlightAware Transoceanic
Thu 12:03:00 PM 47.0451 -39.9909 279° West  Level Estimated
Thu 12:04:00 PM 47.0631 -40.1667 279° West  Level Estimated
Thu 12:05:00 PM 47.0808 -40.3426 278° West  Level Estimated
Thu 12:05:00 PM 47.0000 -40.0000 250° West 457 526 35,000  Level ETMS Enhanced Traffic Management System
Thu 12:06:00 PM 47.0982 -40.5186 278° West  Level Estimated
Thu 12:07:00 PM 47.1154 -40.6947 278° West  Level Estimated
Thu 12:08:00 PM 47.1323 -40.8701 278° West  Level Estimated
Thu 12:09:00 PM 47.1488 -41.0457 278° West  Level Estimated
Thu 12:10:00 PM 47.1651 -41.2214 278° West  Level Estimated
Thu 12:11:00 PM 46.6517 -41.3943 249° West 457 526 35,000  Level FlightAware Transoceanic
Thu 12:12:00 PM 46.6070 -41.5674 249° West 457 526 35,000  Level FlightAware Transoceanic
Thu 12:13:00 PM 46.5620 -41.7401 249° West 457 526 35,000  Level FlightAware Transoceanic
Thu 12:14:00 PM 46.5168 -41.9125 249° West 457 526 35,000  Level FlightAware Transoceanic
Thu 12:15:00 PM 46.4713 -42.0847 249° West 457 526 35,000  Level FlightAware Transoceanic
Thu 12:16:00 PM 46.4256 -42.2565 249° West 457 526 35,000  Level FlightAware Transoceanic
Thu 12:17:00 PM 46.3796 -42.4281 249° West 457 526 35,000  Level FlightAware Transoceanic
Thu 12:18:00 PM 46.3333 -42.5994 249° West 457 526 35,000  Level FlightAware Transoceanic
Thu 12:19:00 PM 46.2868 -42.7704 248° West 457 526 35,000  Level FlightAware Transoceanic
Thu 12:20:00 PM 46.2400 -42.9411 248° West 457 526 35,000  Level FlightAware Transoceanic
Thu 12:21:00 PM 46.1930 -43.1115 248° West 457 526 35,000  Level FlightAware Transoceanic
Thu 12:22:00 PM 46.1457 -43.2817 248° West 457 526 35,000  Level FlightAware Transoceanic
Thu 12:23:00 PM 46.0981 -43.4515 248° West 457 526 35,000  Level FlightAware Transoceanic
Thu 12:24:00 PM 46.0504 -43.6210 248° West 457 526 35,000  Level FlightAware Transoceanic
Thu 12:25:00 PM 46.0023 -43.7903 248° West 457 526 35,000  Level FlightAware Transoceanic
Thu 12:26:00 PM 45.9540 -43.9592 248° West 457 526 35,000  Level FlightAware Transoceanic
Thu 12:27:00 PM 45.9055 -44.1279 247° West 457 526 35,000  Level FlightAware Transoceanic
Thu 12:28:00 PM 45.8567 -44.2962 247° West 457 526 35,000  Level FlightAware Transoceanic
Thu 12:29:00 PM 45.8077 -44.4643 247° West 457 526 35,000  Level FlightAware Transoceanic
Thu 12:30:00 PM 45.7584 -44.6321 247° West 457 526 35,000  Level FlightAware Transoceanic
Thu 12:31:00 PM 45.7089 -44.7995 247° West 457 526 35,000  Level FlightAware Transoceanic
Thu 12:32:00 PM 45.6591 -44.9667 247° West 457 526 35,000  Level FlightAware Transoceanic
Thu 12:33:00 PM 45.6091 -45.1336 247° West 457 526 35,000  Level FlightAware Transoceanic
Thu 12:34:00 PM 45.5589 -45.3002 247° West 457 526 35,000  Level FlightAware Transoceanic
Thu 12:35:00 PM 45.5084 -45.4664 247° West 457 526 35,000  Level FlightAware Transoceanic
Thu 12:36:00 PM 45.4576 -45.6324 246° West 457 526 35,000  Level FlightAware Transoceanic
Thu 12:37:00 PM 45.4067 -45.7981 246° West 457 526 35,000  Level FlightAware Transoceanic
Thu 12:38:00 PM 45.3555 -45.9635 246° West 457 526 35,000  Level FlightAware Transoceanic
Thu 12:39:00 PM 45.3040 -46.1286 246° West 457 526 35,000  Level FlightAware Transoceanic
Thu 12:40:00 PM 45.2523 -46.2933 246° West 457 526 35,000  Level FlightAware Transoceanic
Thu 12:41:00 PM 45.2004 -46.4578 246° West 457 526 35,000  Level FlightAware Transoceanic
Thu 12:42:00 PM 45.1483 -46.6220 246° West 457 526 35,000  Level FlightAware Transoceanic
Thu 12:43:00 PM 45.0959 -46.7859 246° West 457 526 35,000  Level FlightAware Transoceanic
Thu 12:44:00 PM 45.0432 -46.9495 245° Southwest 457 526 35,000  Level FlightAware Transoceanic
Thu 12:45:00 PM 44.9904 -47.1127 245° Southwest 457 526 35,000  Level FlightAware Transoceanic
Thu 12:46:00 PM 44.9373 -47.2757 245° Southwest 457 526 35,000  Level FlightAware Transoceanic
Thu 12:47:00 PM 44.8839 -47.4384 245° Southwest 457 526 35,000  Level FlightAware Transoceanic
Thu 12:48:00 PM 44.8304 -47.6007 245° Southwest 457 526 35,000  Level FlightAware Transoceanic
Thu 12:49:00 PM 44.7766 -47.7628 245° Southwest 457 526 35,000  Level FlightAware Transoceanic
Thu 12:50:00 PM 44.7226 -47.9246 245° Southwest 457 526 35,000  Level FlightAware Transoceanic
Thu 12:51:00 PM 44.6684 -48.0860 245° Southwest 457 526 35,000  Level FlightAware Transoceanic
Thu 12:52:00 PM 44.6139 -48.2472 245° Southwest 457 526 35,000  Level FlightAware Transoceanic
Thu 12:53:00 PM 44.5592 -48.4081 244° Southwest 457 526 35,000  Level FlightAware Transoceanic
Thu 12:54:00 PM 44.5043 -48.5686 244° Southwest 457 526 35,000  Level FlightAware Transoceanic
Thu 12:55:00 PM 44.4491 -48.7289 244° Southwest 457 526 35,000  Level FlightAware Transoceanic
Thu 12:56:00 PM 44.3938 -48.8888 244° Southwest 457 526 35,000  Level FlightAware Transoceanic
Thu 12:57:00 PM 44.3382 -49.0485 244° Southwest 457 526 35,000  Level FlightAware Transoceanic
Thu 12:58:00 PM 44.2824 -49.2078 244° Southwest 457 526 35,000  Level FlightAware Transoceanic
Thu 12:59:00 PM 44.2263 -49.3669 244° Southwest 457 526 35,000  Level FlightAware Transoceanic
Thu 01:00:00 PM 44.1701 -49.5256 244° Southwest 457 526 35,000  Level FlightAware Transoceanic
Thu 01:01:00 PM 44.1136 -49.6840 244° Southwest 457 526 35,000  Level FlightAware Transoceanic
Thu 01:02:00 PM 44.0569 -49.8422 243° Southwest 457 526 35,000  Level FlightAware Transoceanic
Thu 01:03:00 PM 44.0844 -50.0067 283° West  Level Estimated
Thu 01:04:00 PM 44.1117 -50.1713 283° West  Level Estimated
Thu 01:05:00 PM 44.1387 -50.3361 283° West  Level Estimated
Thu 01:06:00 PM 44.1655 -50.5010 283° West  Level Estimated
Thu 01:06:15 PM 44.0000 -50.0000 274° West 458 527 35,000  Level New York Oceanic (ODAPS)
Thu 01:07:00 PM 44.1921 -50.6661 283° West  Level Estimated
Thu 01:08:00 PM 44.2184 -50.8314 283° West  Level Estimated
Thu 01:09:00 PM 44.2443 -50.9955 282° West  Level Estimated
Thu 01:09:54 PM 44.0833 -51.1167 273° West 450 518 35,000  Level Gander Center
Thu 01:10:00 PM 44.2700 -51.1598 282° West  Level Estimated
Thu 01:10:54 PM 44.0833 -51.3000 270° West 440 506 35,000  Level Gander Center
Thu 01:11:00 PM 44.2954 -51.3242 282° West  Level Estimated
Thu 01:11:54 PM 44.1000 -51.4667 278° West 450 518 35,000  Level Gander Center
Thu 01:12:00 PM 44.0741 -51.5830 273° West 458 527 35,000  Level FlightAware Transoceanic
Thu 01:12:54 PM 44.1000 -51.6500 270° West 450 518 35,000  Level Gander Center
Thu 01:13:00 PM 44.0810 -51.7592 273° West 458 527 35,000  Level FlightAware Transoceanic
Thu 01:13:54 PM 44.1000 -51.8000 270° West 440 506 35,000  Level Gander Center
Thu 01:14:00 PM 44.0877 -51.9353 273° West 458 527 35,000  Level FlightAware Transoceanic
Thu 01:14:54 PM 44.1000 -52.0000 270° West 450 518 35,000  Level Gander Center
Thu 01:15:00 PM 44.0940 -52.1115 273° West 458 527 35,000  Level FlightAware Transoceanic
Thu 01:15:54 PM 44.0833 -52.1500 261° West 450 518 35,000  Level Gander Center
Thu 01:16:54 PM 44.1000 -52.3167 278° West 460 529 35,000  Level Gander Center
Thu 01:17:54 PM 44.1000 -52.5000 270° West 450 518 35,000  Level Gander Center
Thu 01:18:54 PM 44.1000 -52.6667 270° West 450 518 35,000  Level Gander Center
Thu 01:19:54 PM 44.1000 -52.8500 270° West 450 518 35,000  Level Gander Center
Thu 01:20:54 PM 44.1167 -53.0167 278° West 460 529 35,000  Level Gander Center
Thu 01:21:54 PM 44.1167 -53.2000 270° West 450 518 35,000  Level Gander Center
Thu 01:22:54 PM 44.1500 -53.3667 286° West 450 518 35,000  Level Gander Center
Thu 01:23:54 PM 44.1833 -53.5333 286° West 450 518 35,000  Level Gander Center
Thu 01:24:54 PM 44.2333 -53.7167 291° West 460 529 35,000  Level Gander Center
Thu 01:25:54 PM 44.2500 -53.8833 278° West 450 518 35,000  Level Gander Center
Thu 01:26:54 PM 44.2833 -54.0667 284° West 450 518 35,000 50 Level Gander Center
Thu 01:27:54 PM 44.3167 -54.2167 287° West 460 529 35,100 500 Climbing Gander Center
Thu 01:28:54 PM 44.3333 -54.3833 278° West 440 506 36,000 450 Climbing Gander Center
Thu 01:29:54 PM 44.3667 -54.5500 286° West 450 518 36,000  Level Gander Center
Thu 01:30:54 PM 44.4000 -54.7333 284° West 450 518 36,000  Level Gander Center
Thu 01:31:54 PM 44.4167 -54.8833 279° West 430 495 36,000  Level Gander Center
Thu 01:32:54 PM 44.4500 -55.0667 284° West 460 529 36,000  Level Gander Center
Thu 01:38:36 PM 44.6230 -56.0570 284° West 437 503 36,000  Level FlightAware ADS-B
Thu 01:39:16 PM 44.6410 -56.1710 283° West 436 502 36,000  Level FlightAware ADS-B
Thu 01:40:06 PM 44.6600 -56.2970 282° West 437 503 36,000  Level FlightAware ADS-B
Thu 01:41:38 PM 44.6970 -56.5410 282° West 436 502 36,000  Level FlightAware ADS-B
Thu 01:42:16 PM 44.7160 -56.6620 283° West 415 478 36,000  Level FlightAware ADS-B
Thu 01:43:02 PM 44.7340 -56.7850 282° West 415 478 36,000 205 Level FlightAware ADS-B
Thu 01:43:44 PM 44.7510 -56.8960 282° West 417 480 36,300 615 Climbing FlightAware ADS-B
Thu 01:44:20 PM 44.7650 -56.9940 281° West 420 483 36,800 383 Climbing FlightAware ADS-B
Thu 01:48:10 PM 44.8550 -57.6170 282° West 425 489 38,000 267 Climbing FlightAware ADS-B
Thu 01:48:50 PM 44.8700 -57.7240 281° West 422 486 38,000  Level FlightAware ADS-B
Thu 01:49:36 PM 44.8870 -57.8480 281° West 418 481 38,000  Level FlightAware ADS-B
Thu 01:51:14 PM 44.9230 -58.1070 281° West 416 479 38,000  Level FlightAware ADS-B
Thu 01:51:50 PM 44.9370 -58.2060 281° West 415 478 38,000  Level FlightAware ADS-B
Thu 01:52:38 PM 44.9540 -58.3330 281° West 415 478 38,000  Level FlightAware ADS-B
Thu 01:53:21 PM 44.9690 -58.4460 281° West 415 478 38,000  Level FlightAware ADS-B
Thu 01:54:04 PM 44.9840 -58.5590 281° West 413 475 38,000  Level FlightAware ADS-B
Thu 01:54:44 PM 44.9980 -58.6660 281° West 412 474 38,000  Level FlightAware ADS-B
Thu 01:55:36 PM 45.0160 -58.8040 281° West 409 471 38,000  Level FlightAware ADS-B
Thu 01:56:20 PM 45.0310 -58.9180 281° West 407 468 38,000  Level FlightAware ADS-B
Thu 01:57:06 PM 45.0470 -59.0400 281° West 407 468 38,000  Level FlightAware ADS-B
Thu 01:57:44 PM 45.0590 -59.1390 280° West 406 467 38,000  Level FlightAware ADS-B
Thu 01:58:24 PM 45.0720 -59.2410 280° West 406 467 38,000  Level FlightAware ADS-B
Thu 01:59:10 PM 45.0880 -59.3630 281° West 405 466 38,000  Level FlightAware ADS-B
Thu 01:59:52 PM 45.1010 -59.4730 280° West 406 467 38,000  Level FlightAware ADS-B
Thu 02:03:16 PM 45.1610 -59.9660 280° West 394 453 38,000  Level FlightAware ADS-B
Thu 02:03:56 PM 45.1770 -60.0980 280° West 394 453 38,000  Level FlightAware ADS-B
Thu 02:04:34 PM 45.1880 -60.1930 279° West 394 453 38,000  Level FlightAware ADS-B
Thu 02:06:16 PM 45.2180 -60.4510 279° West 394 453 38,000  Level FlightAware ADS-B
Thu 02:07:06 PM 45.2330 -60.5790 279° West 394 453 38,000  Level FlightAware ADS-B
Thu 02:07:54 PM 45.2470 -60.7030 279° West 394 453 38,000  Level FlightAware ADS-B
Thu 02:08:38 PM 45.2590 -60.8150 279° West 395 455 38,000  Level FlightAware ADS-B
Thu 02:09:14 PM 45.2700 -60.9060 280° West 394 453 38,000  Level FlightAware ADS-B
Thu 02:10:00 PM 45.2830 -61.0240 279° West 394 453 38,000  Level FlightAware ADS-B
Thu 02:10:58 PM 45.2990 -61.1710 279° West 394 453 38,000  Level FlightAware ADS-B
Thu 02:11:39 PM 45.3070 -61.2580 277° West 394 453 38,000  Level FlightAware ADS-B
Thu 02:12:28 PM 45.3220 -61.3910 279° West 394 453 38,000  Level FlightAware ADS-B
Thu 02:13:17 PM 45.3320 -61.4980 278° West 394 453 38,000  Level FlightAware ADS-B
Thu 02:13:53 PM 45.3400 -61.5770 278° West 394 453 38,000  Level FlightAware ADS-B
Thu 02:14:42 PM 45.3510 -61.6840 278° West 394 453 38,000  Level FlightAware ADS-B
Thu 02:17:41 PM 45.3890 -62.0750 278° West 394 453 38,000  Level FlightAware ADS-B
Thu 02:18:30 PM 45.4000 -62.1820 278° West 394 453 38,000  Level FlightAware ADS-B
Thu 02:19:08 PM 45.4080 -62.2650 278° West 394 453 38,000  Level FlightAware ADS-B
Thu 02:20:20 PM 45.4230 -62.4220 278° West 394 453 38,000  Level FlightAware ADS-B
Thu 02:21:20 PM 45.4360 -62.5530 278° West 394 453 38,000  Level FlightAware ADS-B
Thu 02:21:57 PM 45.4440 -62.6340 278° West 394 453 38,000  Level FlightAware ADS-B
Thu 02:23:05 PM 45.4860 -63.0460 278° West 403 464 38,000  Level FlightAware ADS-B
Thu 02:23:48 PM 45.4960 -63.1570 277° West 403 464 38,000  Level FlightAware ADS-B
Thu 02:24:33 PM 45.5060 -63.2760 277° West 402 463 38,000  Level FlightAware ADS-B
Thu 02:25:23 PM 45.5180 -63.4060 278° West 401 461 38,000  Level FlightAware ADS-B
Thu 02:26:08 PM 45.5270 -63.5110 277° West 399 459 38,000  Level FlightAware ADS-B
Thu 02:27:02 PM 45.5390 -63.6430 277° West 398 458 38,000  Level FlightAware ADS-B
Thu 02:27:52 PM 45.5480 -63.7540 277° West 398 458 38,000  Level FlightAware ADS-B
Thu 02:28:31 PM 45.5550 -63.8400 277° West 398 458 38,000  Level FlightAware ADS-B
Thu 02:29:15 PM 45.5690 -64.0020 277° West 394 453 38,000  Level FlightAware ADS-B
Thu 02:29:52 PM 45.5770 -64.1040 276° West 393 452 38,000  Level FlightAware ADS-B
Thu 02:32:15 PM 45.6070 -64.4730 277° West 397 457 38,000  Level FlightAware ADS-B
Thu 02:32:55 PM 45.6150 -64.5760 276° West 398 458 38,000  Level FlightAware ADS-B
Thu 02:33:37 PM 45.6230 -64.6860 276° West 396 456 38,000  Level FlightAware ADS-B
Thu 02:34:16 PM 45.6310 -64.7870 276° West 396 456 38,000  Level FlightAware ADS-B
Thu 02:34:54 PM 45.6380 -64.8860 276° West 396 456 38,000  Level FlightAware ADS-B
Thu 02:35:46 PM 45.6480 -65.0190 276° West 395 455 38,000  Level FlightAware ADS-B
Thu 02:36:26 PM 45.6560 -65.1240 276° West 396 456 38,000  Level FlightAware ADS-B
Thu 02:37:16 PM 45.6650 -65.2560 276° West 396 456 38,000  Level FlightAware ADS-B
Thu 02:37:56 PM 45.6720 -65.3580 276° West 395 455 38,000  Level FlightAware ADS-B
Thu 02:38:36 PM 45.6800 -65.4620 276° West 394 453 38,000  Level FlightAware ADS-B
Thu 02:39:22 PM 45.6880 -65.5800 276° West 393 452 38,000  Level FlightAware ADS-B
Thu 02:39:58 PM 45.6940 -65.6740 275° West 393 452 38,000  Level FlightAware ADS-B
Thu 02:40:39 PM 45.7010 -65.7780 276° West 392 451 38,000  Level FlightAware ADS-B
Thu 02:41:26 PM 45.7090 -65.9000 275° West 393 452 38,000  Level FlightAware ADS-B
Thu 02:42:11 PM 45.7170 -66.0150 276° West 393 452 38,000  Level FlightAware ADS-B
Thu 02:43:06 PM 45.7260 -66.1590 275° West 393 452 38,000  Level FlightAware ADS-B
Thu 02:43:47 PM 45.7320 -66.2640 275° West 392 451 38,000  Level FlightAware ADS-B
Thu 02:44:26 PM 45.7390 -66.3660 276° West 391 450 38,000  Level FlightAware ADS-B
Thu 02:45:23 PM 45.7470 -66.5080 275° West 389 448 38,000  Level FlightAware ADS-B
Thu 02:46:08 PM 45.7540 -66.6250 275° West 387 445 38,000  Level FlightAware ADS-B
Thu 02:46:49 PM 45.7590 -66.7140 275° West 387 445 38,000  Level FlightAware ADS-B
Thu 02:47:25 PM 45.7620 -66.7920 273° West 387 445 38,000  Level FlightAware ADS-B
Thu 02:48:06 PM 45.7710 -66.9200 276° West 385 443 38,000  Level FlightAware ADS-B
Thu 02:48:50 PM 45.7760 -67.0150 274° West 385 443 38,000  Level FlightAware ADS-B
Thu 02:49:36 PM 45.7840 -67.1530 275° West 386 444 38,000  Level FlightAware ADS-B
Thu 02:50:16 PM 45.7900 -67.2530 275° West 387 445 38,000  Level FlightAware ADS-B
Thu 02:51:14 PM 45.7960 -67.3800 274° West 388 447 38,000  Level FlightAware ADS-B
Thu 02:51:57 PM 45.7920 -67.2920 94° East 387 445 38,000  Level FlightAware ADS-B
Thu 02:52:39 PM 45.7960 -67.3830 274° West 387 445 38,000  Level FlightAware ADS-B
Thu 02:53:17 PM 45.8130 -67.7060 274° West 387 445 38,000  Level FlightAware ADS-B
Thu 02:53:57 PM 45.8180 -67.8120 274° West 388 447 38,000  Level FlightAware ADS-B
Thu 02:54:46 PM 45.8240 -67.9400 274° West 389 448 38,000  Level FlightAware ADS-B
Thu 02:55:26 PM 45.8290 -68.0470 274° West 390 449 38,000  Level FlightAware ADS-B
Thu 02:56:08 PM 45.8340 -68.1470 274° West 391 450 38,000  Level FlightAware ADS-B
Thu 02:56:46 PM 45.8390 -68.2530 274° West 392 451 38,000  Level FlightAware ADS-B
Thu 02:57:31 PM 45.8440 -68.3680 274° West 393 452 38,000  Level FlightAware ADS-B
Thu 02:58:11 PM 45.8480 -68.4720 273° West 394 453 38,000  Level FlightAware ADS-B
Thu 02:58:56 PM 45.8530 -68.5900 274° West 396 456 38,000  Level FlightAware ADS-B
Thu 02:59:31 PM 45.8570 -68.6810 274° West 396 456 38,000  Level FlightAware ADS-B
Thu 03:00:21 PM 45.8620 -68.8120 273° West 396 456 38,000  Level FlightAware ADS-B
Thu 03:01:01 PM 45.8660 -68.9170 273° West 395 455 38,000  Level FlightAware ADS-B
Thu 03:01:46 PM 45.8710 -69.0340 274° West 395 455 38,000  Level FlightAware ADS-B
Thu 03:02:26 PM 45.8750 -69.1380 273° West 395 455 38,000  Level FlightAware ADS-B
Thu 03:03:06 PM 45.8790 -69.2420 273° West 394 453 38,000  Level FlightAware ADS-B
Thu 03:03:51 PM 45.8830 -69.3570 273° West 392 451 38,000  Level FlightAware ADS-B
Thu 03:04:31 PM 45.8860 -69.4620 272° West 388 447 38,000  Level FlightAware ADS-B
Thu 03:05:11 PM 45.8900 -69.5640 273° West 387 445 38,000  Level FlightAware ADS-B
Thu 03:05:56 PM 45.8940 -69.6790 273° West 388 447 38,000  Level FlightAware ADS-B
Thu 03:06:36 PM 45.8970 -69.7820 272° West 390 449 38,000  Level FlightAware ADS-B
Thu 03:07:21 PM 45.9000 -69.8980 272° West 390 449 38,000  Level FlightAware ADS-B
Thu 03:08:01 PM 45.9030 -69.9990 272° West 383 441 38,000  Level FlightAware ADS-B
Thu 03:08:41 PM 45.9060 -70.0990 273° West 380 437 38,000  Level FlightAware ADS-B
Thu 03:09:26 PM 45.9090 -70.2120 272° West 376 433 38,000  Level FlightAware ADS-B
Thu 03:10:36 PM 45.9140 -70.3860 272° West 375 432 38,000  Level FlightAware ADS-B
Thu 03:11:18 PM 45.9170 -70.4840 273° West 375 432 38,000  Level FlightAware ADS-B
Thu 03:12:01 PM 45.9190 -70.5970 271° West 382 440 38,000  Level FlightAware ADS-B
Thu 03:12:36 PM 45.9210 -70.6850 272° West 385 443 38,000 -141 Level FlightAware ADS-B
Thu 03:13:26 PM 45.9240 -70.8120 272° West 378 435 37,800 -133 Descending FlightAware ADS-B
Thu 03:14:06 PM 45.9200 -70.9100 267° West 372 428 37,800 -75 Level FlightAware ADS-B
Thu 03:14:46 PM 45.9110 -71.0080 263° West 378 435 37,700 -911 Descending FlightAware ADS-B
Thu 03:20:15 PM 45.8390 -71.8010 263° West 401 461 32,200 -1,347 Descending FlightAware ADS-B
Thu 03:21:09 PM 45.8260 -71.9510 263° West 388 447 29,100 -3,064 Descending FlightAware ADS-B
Thu 03:21:49 PM 45.8130 -72.0820 262° West 370 426 27,400 -1,926 Descending FlightAware ADS-B
Thu 03:22:30 PM 45.8060 -72.1570 262° West 360 414 26,500 -1,644 Descending FlightAware ADS-B
Thu 03:23:02 PM 45.7970 -72.2540 262° West 346 398 25,400 -1,769 Descending FlightAware ADS-B
Thu 03:23:48 PM 45.7870 -72.3560 262° West 342 394 24,200 -1,643 Descending FlightAware ADS-B
Thu 03:24:26 PM 45.7780 -72.4440 262° West 354 407 23,100 -1,820 Descending FlightAware ADS-B
Thu 03:25:50 PM 45.7590 -72.6310 262° West 336 387 20,500 -2,000 Descending FlightAware ADS-B
Thu 03:26:32 PM 45.7500 -72.7240 262° West 338 389 18,900 -1,909 Descending FlightAware ADS-B
Thu 03:28:24 PM 45.7250 -72.9680 262° West 318 366 15,600 -1,709 Descending FlightAware ADS-B
Thu 03:29:10 PM 45.7150 -73.0630 261° West 318 366 14,400 -1,467 Descending FlightAware ADS-B
Thu 03:29:54 PM 45.6970 -73.1500 254° West 314 361 13,400 -1,255 Descending FlightAware ADS-B
Thu 03:33:52 PM 45.5100 -73.5120 234° Southwest 254 292 8,500 -1,210 Descending FlightAware ADS-B
Thu 03:34:02 PM 45.4980 -73.5270 221° Southwest 246 283 8,400 -714 Descending FlightAware ADS-B
Thu 03:34:34 PM 45.4720 -73.5620 223° Southwest 231 266 8,000 -1,000 Descending FlightAware ADS-B
Thu 03:34:50 PM 45.4590 -73.5780 221° Southwest 234 269 7,600 -1,593 Descending FlightAware ADS-B
Thu 03:36:27 PM 45.3770 -73.6860 223° Southwest 257 296 5,000 -1,438 Descending FlightAware ADS-B
Thu 03:36:51 PM 45.3570 -73.7120 222° Southwest 249 287 4,700 -931 Descending FlightAware ADS-B
Thu 03:37:25 PM 45.3280 -73.7500 223° Southwest 239 275 4,100 -492 Descending FlightAware ADS-B
Thu 03:37:52 PM 45.3080 -73.7760 222° Southwest 220 253 4,200 118 Climbing FlightAware ADS-B
Thu 03:38:16 PM 45.2890 -73.8000 222° Southwest 225 259 4,200  Level FlightAware ADS-B
Thu 03:38:47 PM 45.2660 -73.8310 223° Southwest 224 258 4,200 -338 Level FlightAware ADS-B
Thu 03:39:27 PM 45.2500 -73.8800 245° Southwest 211 243 3,800 -771 Descending FlightAware ADS-B
Thu 03:39:57 PM 45.2680 -73.9110 310° West 206 237 3,300 -379 Descending FlightAware ADS-B
Thu 03:41:02 PM 45.3200 -73.9190 354° North 208 239 3,200 -126 Descending FlightAware ADS-B
Thu 03:41:32 PM 45.3420 -73.8930 40° Northeast 202 232 3,100 -261 Descending FlightAware ADS-B
Thu 03:41:48 PM 45.3520 -73.8790 45° Northeast 203 234 3,000 -783 Descending FlightAware ADS-B
Thu 03:42:18 PM 45.3730 -73.8520 42° Northeast 196 226 2,500 -960 Descending FlightAware ADS-B
Thu 03:42:38 PM 45.3860 -73.8350 43° Northeast 186 214 2,200 -1,050 Descending FlightAware ADS-B
Thu 03:42:58 PM 45.3990 -73.8180 43° Northeast 180 207 1,800 -1,067 Descending FlightAware ADS-B
Thu 03:43:23 PM 45.4140 -73.7990 42° Northeast 165 190 1,400 -900 Descending FlightAware ADS-B
Thu 03:43:38 PM 45.4210 -73.7890 45° Northeast 158 182 1,200 -828 Descending FlightAware ADS-B
Thu 03:44:21 PM 45.4440 -73.7590 42° Northeast 145 167 600 -675 Descending FlightAware ADS-B
Thu 03:44:58 PM 45.4620 -73.7350 43° Northeast 139 160 300 -486 Descending FlightAware ADS-B
Thu 03:45:32 PM 45.4720 -73.7230 40° Northeast 37 43 -529 Descending FlightAware ADS-B
Thu 03:45:53 PM 45.4750 -73.7220 13° North 22 25  Level FlightAware ADS-B
Thu 03:46:38 PM 45.4740 -73.7240 235° Southwest 17 20  Level FlightAware ADS-B
Thu 03:47:08 PM 45.4720 -73.7270 226° Southwest 23 26  Level FlightAware ADS-B
Thu 03:47:23 PM 45.4710 -73.7280 215° Southwest 26 30  Level FlightAware ADS-B
Thu 03:48:07 PM 45.4660 -73.7340 220° Southwest 32 37  Level FlightAware ADS-B
Thu 03:48:33 PM 45.4640 -73.7380 235° Southwest 21 24  Level FlightAware ADS-B

Login

Don't have an account? Register now (free) for customized features, flight alerts, and more!